sensor_id;sensor_type;location;lat;lon;timestamp;temperature;humidity
40848;DHT22;26570;50.962;5.340;2023-05-24T00:04:09;9.50;99.90
40848;DHT22;26570;50.962;5.340;2023-05-24T00:06:56;9.40;99.90
40848;DHT22;26570;50.962;5.340;2023-05-24T00:09:42;9.40;99.90
40848;DHT22;26570;50.962;5.340;2023-05-24T00:12:27;9.50;99.90
40848;DHT22;26570;50.962;5.340;2023-05-24T00:15:12;9.40;99.90
40848;DHT22;26570;50.962;5.340;2023-05-24T00:17:57;9.30;99.90
40848;DHT22;26570;50.962;5.340;2023-05-24T00:20:43;9.40;99.90
40848;DHT22;26570;50.962;5.340;2023-05-24T00:23:29;9.30;99.90
40848;DHT22;26570;50.962;5.340;2023-05-24T00:26:14;9.20;99.90
40848;DHT22;26570;50.962;5.340;2023-05-24T00:29:00;9.10;99.90
40848;DHT22;26570;50.962;5.340;2023-05-24T00:31:45;9.10;99.90
40848;DHT22;26570;50.962;5.340;2023-05-24T00:34:31;9.00;99.90
40848;DHT22;26570;50.962;5.340;2023-05-24T00:37:17;9.10;99.90
40848;DHT22;26570;50.962;5.340;2023-05-24T00:40:02;8.90;99.90
40848;DHT22;26570;50.962;5.340;2023-05-24T00:42:48;8.90;99.90
40848;DHT22;26570;50.962;5.340;2023-05-24T00:45:34;8.80;99.90
40848;DHT22;26570;50.962;5.340;2023-05-24T00:48:19;8.80;99.90
40848;DHT22;26570;50.962;5.340;2023-05-24T00:51:06;8.80;99.90
40848;DHT22;26570;50.962;5.340;2023-05-24T00:53:52;8.80;99.90
40848;DHT22;26570;50.962;5.340;2023-05-24T00:56:37;8.70;99.90
40848;DHT22;26570;50.962;5.340;2023-05-24T00:59:23;8.70;99.90
40848;DHT22;26570;50.962;5.340;2023-05-24T01:02:09;8.60;99.90
40848;DHT22;26570;50.962;5.340;2023-05-24T01:04:54;8.70;99.90
40848;DHT22;26570;50.962;5.340;2023-05-24T01:08:09;8.60;99.90
40848;DHT22;26570;50.962;5.340;2023-05-24T01:11:20;8.50;99.90
40848;DHT22;26570;50.962;5.340;2023-05-24T01:20:31;8.30;99.90
40848;DHT22;26570;50.962;5.340;2023-05-24T01:27:06;8.10;99.90
40848;DHT22;26570;50.962;5.340;2023-05-24T01:29:52;8.00;99.90
40848;DHT22;26570;50.962;5.340;2023-05-24T01:32:38;8.00;99.90
40848;DHT22;26570;50.962;5.340;2023-05-24T01:35:24;7.90;99.90
40848;DHT22;26570;50.962;5.340;2023-05-24T01:38:10;7.90;99.90
40848;DHT22;26570;50.962;5.340;2023-05-24T01:41:12;7.80;99.90
40848;DHT22;26570;50.962;5.340;2023-05-24T01:50:24;7.60;99.90
40848;DHT22;26570;50.962;5.340;2023-05-24T01:53:13;7.50;99.90
40848;DHT22;26570;50.962;5.340;2023-05-24T01:56:04;7.40;99.90
40848;DHT22;26570;50.962;5.340;2023-05-24T01:58:50;7.30;99.90
40848;DHT22;26570;50.962;5.340;2023-05-24T02:01:37;7.30;99.90
40848;DHT22;26570;50.962;5.340;2023-05-24T02:04:23;7.30;99.90
40848;DHT22;26570;50.962;5.340;2023-05-24T02:07:09;7.20;99.90
40848;DHT22;26570;50.962;5.340;2023-05-24T02:09:54;7.20;99.90
40848;DHT22;26570;50.962;5.340;2023-05-24T02:12:39;7.10;99.90
40848;DHT22;26570;50.962;5.340;2023-05-24T02:15:24;7.10;99.90
40848;DHT22;26570;50.962;5.340;2023-05-24T02:18:13;7.10;99.90
40848;DHT22;26570;50.962;5.340;2023-05-24T02:21:02;7.10;99.90
40848;DHT22;26570;50.962;5.340;2023-05-24T02:23:48;7.00;99.90
40848;DHT22;26570;50.962;5.340;2023-05-24T02:26:33;7.00;99.90
40848;DHT22;26570;50.962;5.340;2023-05-24T02:29:19;7.00;99.90
40848;DHT22;26570;50.962;5.340;2023-05-24T02:32:05;6.90;99.90
40848;DHT22;26570;50.962;5.340;2023-05-24T02:34:50;7.00;99.90
40848;DHT22;26570;50.962;5.340;2023-05-24T02:37:36;7.00;99.90
40848;DHT22;26570;50.962;5.340;2023-05-24T02:40:21;7.00;99.90
40848;DHT22;26570;50.962;5.340;2023-05-24T02:43:30;7.00;99.90
40848;DHT22;26570;50.962;5.340;2023-05-24T02:46:15;7.00;99.90
40848;DHT22;26570;50.962;5.340;2023-05-24T02:49:00;7.00;99.90
40848;DHT22;26570;50.962;5.340;2023-05-24T02:51:46;6.90;99.90
40848;DHT22;26570;50.962;5.340;2023-05-24T02:54:31;6.90;99.90
40848;DHT22;26570;50.962;5.340;2023-05-24T02:57:16;6.80;99.90
40848;DHT22;26570;50.962;5.340;2023-05-24T03:00:02;6.70;99.90
40848;DHT22;26570;50.962;5.340;2023-05-24T03:02:49;6.70;99.90
40848;DHT22;26570;50.962;5.340;2023-05-24T03:05:34;6.70;99.90
40848;DHT22;26570;50.962;5.340;2023-05-24T03:08:20;6.60;99.90
40848;DHT22;26570;50.962;5.340;2023-05-24T03:11:06;6.50;99.90
40848;DHT22;26570;50.962;5.340;2023-05-24T03:13:51;6.50;99.90
40848;DHT22;26570;50.962;5.340;2023-05-24T03:16:37;6.20;99.90
40848;DHT22;26570;50.962;5.340;2023-05-24T03:19:22;6.50;99.90
40848;DHT22;26570;50.962;5.340;2023-05-24T03:22:07;6.40;99.90
40848;DHT22;26570;50.962;5.340;2023-05-24T03:24:52;6.40;99.90
40848;DHT22;26570;50.962;5.340;2023-05-24T03:27:37;6.30;99.90
40848;DHT22;26570;50.962;5.340;2023-05-24T03:30:23;7.00;99.90
40848;DHT22;26570;50.962;5.340;2023-05-24T03:33:09;6.20;99.90
40848;DHT22;26570;50.962;5.340;2023-05-24T03:35:55;6.20;99.90
40848;DHT22;26570;50.962;5.340;2023-05-24T03:38:40;6.10;99.90
40848;DHT22;26570;50.962;5.340;2023-05-24T03:41:25;6.20;99.90
40848;DHT22;26570;50.962;5.340;2023-05-24T03:44:12;6.30;99.90
40848;DHT22;26570;50.962;5.340;2023-05-24T03:46:58;6.30;99.90
40848;DHT22;26570;50.962;5.340;2023-05-24T03:50:06;6.30;99.90
40848;DHT22;26570;50.962;5.340;2023-05-24T03:52:52;6.20;99.90
40848;DHT22;26570;50.962;5.340;2023-05-24T03:55:40;6.10;99.90
40848;DHT22;26570;50.962;5.340;2023-05-24T03:58:26;6.10;99.90
40848;DHT22;26570;50.962;5.340;2023-05-24T04:01:12;6.00;99.90
40848;DHT22;26570;50.962;5.340;2023-05-24T04:03:57;6.10;99.90
40848;DHT22;26570;50.962;5.340;2023-05-24T04:06:43;6.10;99.90
40848;DHT22;26570;50.962;5.340;2023-05-24T04:09:28;6.10;99.90
40848;DHT22;26570;50.962;5.340;2023-05-24T04:12:14;6.10;99.90
40848;DHT22;26570;50.962;5.340;2023-05-24T04:15:23;6.20;99.90
40848;DHT22;26570;50.962;5.340;2023-05-24T04:18:08;6.10;99.90
40848;DHT22;26570;50.962;5.340;2023-05-24T04:20:54;6.00;99.90
40848;DHT22;26570;50.962;5.340;2023-05-24T04:27:02;6.10;99.90
40848;DHT22;26570;50.962;5.340;2023-05-24T04:29:47;6.20;99.90
40848;DHT22;26570;50.962;5.340;2023-05-24T04:32:33;6.30;99.90
40848;DHT22;26570;50.962;5.340;2023-05-24T04:35:20;6.30;99.90
40848;DHT22;26570;50.962;5.340;2023-05-24T04:38:07;6.40;99.90
40848;DHT22;26570;50.962;5.340;2023-05-24T04:40:52;6.60;99.90
40848;DHT22;26570;50.962;5.340;2023-05-24T04:43:38;6.80;99.90
40848;DHT22;26570;50.962;5.340;2023-05-24T04:46:24;6.90;99.90
40848;DHT22;26570;50.962;5.340;2023-05-24T04:49:10;7.00;99.90
40848;DHT22;26570;50.962;5.340;2023-05-24T04:51:56;7.10;99.90
40848;DHT22;26570;50.962;5.340;2023-05-24T04:54:41;7.30;99.90
40848;DHT22;26570;50.962;5.340;2023-05-24T04:57:27;7.50;99.90
40848;DHT22;26570;50.962;5.340;2023-05-24T05:00:12;7.60;99.90
40848;DHT22;26570;50.962;5.340;2023-05-24T05:02:58;7.60;99.90
40848;DHT22;26570;50.962;5.340;2023-05-24T05:06:05;7.60;99.90
40848;DHT22;26570;50.962;5.340;2023-05-24T05:09:13;8.00;99.90
40848;DHT22;26570;50.962;5.340;2023-05-24T05:11:59;8.50;99.90
40848;DHT22;26570;50.962;5.340;2023-05-24T05:14:44;8.80;99.90
40848;DHT22;26570;50.962;5.340;2023-05-24T05:17:29;8.90;99.90
40848;DHT22;26570;50.962;5.340;2023-05-24T05:20:37;9.00;99.90
40848;DHT22;26570;50.962;5.340;2023-05-24T05:23:45;9.10;99.90
40848;DHT22;26570;50.962;5.340;2023-05-24T05:26:30;9.20;99.90
40848;DHT22;26570;50.962;5.340;2023-05-24T05:29:15;9.20;99.90
40848;DHT22;26570;50.962;5.340;2023-05-24T05:32:02;9.30;99.90
40848;DHT22;26570;50.962;5.340;2023-05-24T05:34:47;9.50;99.90
40848;DHT22;26570;50.962;5.340;2023-05-24T05:37:32;9.80;99.90
40848;DHT22;26570;50.962;5.340;2023-05-24T05:40:17;9.90;99.90
40848;DHT22;26570;50.962;5.340;2023-05-24T05:43:03;10.00;99.90
40848;DHT22;26570;50.962;5.340;2023-05-24T05:45:48;10.00;99.90
40848;DHT22;26570;50.962;5.340;2023-05-24T05:48:33;10.10;99.90
40848;DHT22;26570;50.962;5.340;2023-05-24T05:51:18;10.10;99.90
40848;DHT22;26570;50.962;5.340;2023-05-24T05:54:04;10.00;99.90
40848;DHT22;26570;50.962;5.340;2023-05-24T05:56:52;10.10;99.90
40848;DHT22;26570;50.962;5.340;2023-05-24T05:59:38;10.10;99.90
40848;DHT22;26570;50.962;5.340;2023-05-24T06:02:23;10.30;99.90
40848;DHT22;26570;50.962;5.340;2023-05-24T06:05:09;10.30;99.90
40848;DHT22;26570;50.962;5.340;2023-05-24T06:07:54;10.50;99.90
40848;DHT22;26570;50.962;5.340;2023-05-24T06:10:39;10.50;99.90
40848;DHT22;26570;50.962;5.340;2023-05-24T06:13:24;10.70;99.90
40848;DHT22;26570;50.962;5.340;2023-05-24T06:16:12;11.20;99.90
40848;DHT22;26570;50.962;5.340;2023-05-24T06:18:58;11.80;99.90
40848;DHT22;26570;50.962;5.340;2023-05-24T06:21:43;13.10;99.90
40848;DHT22;26570;50.962;5.340;2023-05-24T06:24:31;14.80;99.90
40848;DHT22;26570;50.962;5.340;2023-05-24T06:27:18;16.60;99.90
40848;DHT22;26570;50.962;5.340;2023-05-24T06:30:03;18.50;99.90
40848;DHT22;26570;50.962;5.340;2023-05-24T06:32:50;19.40;99.90
40848;DHT22;26570;50.962;5.340;2023-05-24T06:35:35;20.80;99.90
40848;DHT22;26570;50.962;5.340;2023-05-24T06:38:20;21.20;98.90
40848;DHT22;26570;50.962;5.340;2023-05-24T06:41:05;22.20;98.00
40848;DHT22;26570;50.962;5.340;2023-05-24T06:43:51;22.20;96.60
40848;DHT22;26570;50.962;5.340;2023-05-24T06:46:36;23.30;95.60
40848;DHT22;26570;50.962;5.340;2023-05-24T06:49:21;23.30;93.60
40848;DHT22;26570;50.962;5.340;2023-05-24T06:52:06;23.00;93.60
40848;DHT22;26570;50.962;5.340;2023-05-24T06:55:14;23.00;94.00
40848;DHT22;26570;50.962;5.340;2023-05-24T06:57:59;23.10;93.60
40848;DHT22;26570;50.962;5.340;2023-05-24T07:00:45;22.80;93.00
40848;DHT22;26570;50.962;5.340;2023-05-24T07:03:30;22.50;93.20
40848;DHT22;26570;50.962;5.340;2023-05-24T07:06:16;23.10;93.00
40848;DHT22;26570;50.962;5.340;2023-05-24T07:09:02;22.70;92.80
40848;DHT22;26570;50.962;5.340;2023-05-24T07:11:48;22.90;93.00
40848;DHT22;26570;50.962;5.340;2023-05-24T07:14:33;23.20;92.40
40848;DHT22;26570;50.962;5.340;2023-05-24T07:17:19;23.40;91.50
40848;DHT22;26570;50.962;5.340;2023-05-24T07:20:08;24.10;91.10
40848;DHT22;26570;50.962;5.340;2023-05-24T07:22:57;24.40;90.70
40848;DHT22;26570;50.962;5.340;2023-05-24T07:25:42;24.30;90.10
40848;DHT22;26570;50.962;5.340;2023-05-24T07:28:37;22.70;90.60
40848;DHT22;26570;50.962;5.340;2023-05-24T07:31:49;22.90;91.00
40848;DHT22;26570;50.962;5.340;2023-05-24T07:34:34;23.60;90.30
40848;DHT22;26570;50.962;5.340;2023-05-24T07:37:23;23.50;90.70
40848;DHT22;26570;50.962;5.340;2023-05-24T07:40:08;23.70;88.90
40848;DHT22;26570;50.962;5.340;2023-05-24T07:42:56;23.90;86.30
40848;DHT22;26570;50.962;5.340;2023-05-24T07:45:44;23.60;89.80
40848;DHT22;26570;50.962;5.340;2023-05-24T07:48:29;24.20;87.80
40848;DHT22;26570;50.962;5.340;2023-05-24T07:51:15;24.70;86.60
40848;DHT22;26570;50.962;5.340;2023-05-24T07:54:03;24.80;87.40
40848;DHT22;26570;50.962;5.340;2023-05-24T07:56:48;25.00;85.80
40848;DHT22;26570;50.962;5.340;2023-05-24T07:59:34;24.80;85.70
40848;DHT22;26570;50.962;5.340;2023-05-24T08:02:19;25.30;84.00
40848;DHT22;26570;50.962;5.340;2023-05-24T08:05:27;25.10;83.50
40848;DHT22;26570;50.962;5.340;2023-05-24T08:08:12;25.10;81.30
40848;DHT22;26570;50.962;5.340;2023-05-24T08:10:58;24.90;80.50
40848;DHT22;26570;50.962;5.340;2023-05-24T08:13:44;23.60;81.20
40848;DHT22;26570;50.962;5.340;2023-05-24T08:16:31;22.30;85.30
40848;DHT22;26570;50.962;5.340;2023-05-24T08:19:17;22.00;86.30
40848;DHT22;26570;50.962;5.340;2023-05-24T08:22:05;22.10;86.80
40848;DHT22;26570;50.962;5.340;2023-05-24T08:24:51;22.00;88.00
40848;DHT22;26570;50.962;5.340;2023-05-24T08:27:36;22.50;87.30
40848;DHT22;26570;50.962;5.340;2023-05-24T08:30:25;23.10;85.40
40848;DHT22;26570;50.962;5.340;2023-05-24T08:33:14;23.00;84.40
40848;DHT22;26570;50.962;5.340;2023-05-24T08:36:23;23.10;84.50
40848;DHT22;26570;50.962;5.340;2023-05-24T08:39:08;22.60;83.30
40848;DHT22;26570;50.962;5.340;2023-05-24T08:41:54;22.20;87.50
40848;DHT22;26570;50.962;5.340;2023-05-24T08:44:51;21.60;87.00
40848;DHT22;26570;50.962;5.340;2023-05-24T08:47:37;20.80;88.50
40848;DHT22;26570;50.962;5.340;2023-05-24T08:50:46;20.50;90.80
40848;DHT22;26570;50.962;5.340;2023-05-24T08:53:31;21.30;89.30
40848;DHT22;26570;50.962;5.340;2023-05-24T08:56:41;21.30;87.20
40848;DHT22;26570;50.962;5.340;2023-05-24T08:59:26;20.60;88.70
40848;DHT22;26570;50.962;5.340;2023-05-24T09:02:13;20.30;89.40
40848;DHT22;26570;50.962;5.340;2023-05-24T09:04:59;20.90;89.40
40848;DHT22;26570;50.962;5.340;2023-05-24T09:07:45;20.60;87.50
40848;DHT22;26570;50.962;5.340;2023-05-24T09:10:32;19.90;90.10
40848;DHT22;26570;50.962;5.340;2023-05-24T09:13:18;20.20;90.40
40848;DHT22;26570;50.962;5.340;2023-05-24T09:16:05;20.70;90.30
40848;DHT22;26570;50.962;5.340;2023-05-24T09:18:50;21.40;87.70
40848;DHT22;26570;50.962;5.340;2023-05-24T09:21:36;21.60;89.20
40848;DHT22;26570;50.962;5.340;2023-05-24T09:24:22;21.30;88.40
40848;DHT22;26570;50.962;5.340;2023-05-24T09:27:07;21.40;88.80
40848;DHT22;26570;50.962;5.340;2023-05-24T09:29:54;20.90;89.30
40848;DHT22;26570;50.962;5.340;2023-05-24T09:32:39;20.60;89.90
40848;DHT22;26570;50.962;5.340;2023-05-24T09:35:25;20.60;90.30
40848;DHT22;26570;50.962;5.340;2023-05-24T09:38:20;21.10;89.30
40848;DHT22;26570;50.962;5.340;2023-05-24T09:41:11;21.80;89.60
40848;DHT22;26570;50.962;5.340;2023-05-24T09:44:23;22.20;87.30
40848;DHT22;26570;50.962;5.340;2023-05-24T09:47:10;22.20;86.50
40848;DHT22;26570;50.962;5.340;2023-05-24T09:49:56;21.90;86.10
40848;DHT22;26570;50.962;5.340;2023-05-24T09:52:41;22.30;86.30
40848;DHT22;26570;50.962;5.340;2023-05-24T09:55:26;22.80;85.80
40848;DHT22;26570;50.962;5.340;2023-05-24T09:58:11;23.20;84.30
40848;DHT22;26570;50.962;5.340;2023-05-24T10:01:05;23.40;84.00
40848;DHT22;26570;50.962;5.340;2023-05-24T10:03:55;23.30;81.40
40848;DHT22;26570;50.962;5.340;2023-05-24T10:07:05;22.90;83.70
40848;DHT22;26570;50.962;5.340;2023-05-24T10:09:50;23.00;83.00
40848;DHT22;26570;50.962;5.340;2023-05-24T10:12:35;23.30;84.10
40848;DHT22;26570;50.962;5.340;2023-05-24T10:15:26;23.30;82.90
40848;DHT22;26570;50.962;5.340;2023-05-24T10:18:12;23.50;82.30
40848;DHT22;26570;50.962;5.340;2023-05-24T10:20:58;23.80;83.30
40848;DHT22;26570;50.962;5.340;2023-05-24T10:23:50;23.90;82.60
40848;DHT22;26570;50.962;5.340;2023-05-24T10:26:37;23.60;82.00
40848;DHT22;26570;50.962;5.340;2023-05-24T10:32:24;23.90;82.30
40848;DHT22;26570;50.962;5.340;2023-05-24T10:35:15;23.90;81.00
40848;DHT22;26570;50.962;5.340;2023-05-24T10:38:07;23.80;80.90
40848;DHT22;26570;50.962;5.340;2023-05-24T10:40:52;23.40;81.80
40848;DHT22;26570;50.962;5.340;2023-05-24T10:43:37;23.20;82.10
40848;DHT22;26570;50.962;5.340;2023-05-24T10:46:22;22.50;83.80
40848;DHT22;26570;50.962;5.340;2023-05-24T10:49:06;22.00;86.30
40848;DHT22;26570;50.962;5.340;2023-05-24T10:52:00;21.80;88.00
40848;DHT22;26570;50.962;5.340;2023-05-24T10:55:05;21.40;88.30
40848;DHT22;26570;50.962;5.340;2023-05-24T10:57:51;21.20;87.60
40848;DHT22;26570;50.962;5.340;2023-05-24T11:00:45;21.10;89.20
40848;DHT22;26570;50.962;5.340;2023-05-24T11:03:32;20.90;88.90
40848;DHT22;26570;50.962;5.340;2023-05-24T11:06:18;21.00;89.40
40848;DHT22;26570;50.962;5.340;2023-05-24T11:09:03;20.60;88.40
40848;DHT22;26570;50.962;5.340;2023-05-24T11:11:55;20.80;89.40
40848;DHT22;26570;50.962;5.340;2023-05-24T11:14:41;20.70;87.80
40848;DHT22;26570;50.962;5.340;2023-05-24T11:20:58;20.50;88.60
40848;DHT22;26570;50.962;5.340;2023-05-24T11:23:43;20.70;88.50
40848;DHT22;26570;50.962;5.340;2023-05-24T11:26:28;21.00;87.30
40848;DHT22;26570;50.962;5.340;2023-05-24T11:29:15;21.00;86.00
40848;DHT22;26570;50.962;5.340;2023-05-24T11:32:01;21.30;87.60
40848;DHT22;26570;50.962;5.340;2023-05-24T11:34:48;21.70;87.80
40848;DHT22;26570;50.962;5.340;2023-05-24T11:37:33;21.80;83.50
40848;DHT22;26570;50.962;5.340;2023-05-24T11:40:19;21.80;82.80
40848;DHT22;26570;50.962;5.340;2023-05-24T11:43:07;21.70;83.50
40848;DHT22;26570;50.962;5.340;2023-05-24T11:45:52;21.50;84.80
40848;DHT22;26570;50.962;5.340;2023-05-24T11:48:37;21.50;85.50
40848;DHT22;26570;50.962;5.340;2023-05-24T11:51:33;21.60;83.90
40848;DHT22;26570;50.962;5.340;2023-05-24T11:54:18;21.90;84.70
40848;DHT22;26570;50.962;5.340;2023-05-24T11:57:04;22.00;85.10
40848;DHT22;26570;50.962;5.340;2023-05-24T11:59:48;22.20;84.50
40848;DHT22;26570;50.962;5.340;2023-05-24T12:02:33;22.10;83.10
40848;DHT22;26570;50.962;5.340;2023-05-24T12:05:19;22.20;83.70
40848;DHT22;26570;50.962;5.340;2023-05-24T12:08:08;22.10;82.30
40848;DHT22;26570;50.962;5.340;2023-05-24T12:10:53;21.80;82.70
40848;DHT22;26570;50.962;5.340;2023-05-24T12:13:39;21.60;86.10
40848;DHT22;26570;50.962;5.340;2023-05-24T12:16:25;21.80;84.90
40848;DHT22;26570;50.962;5.340;2023-05-24T12:19:19;21.80;84.70
40848;DHT22;26570;50.962;5.340;2023-05-24T12:22:05;21.60;84.70
40848;DHT22;26570;50.962;5.340;2023-05-24T12:24:50;21.60;83.20
40848;DHT22;26570;50.962;5.340;2023-05-24T12:27:35;21.60;84.60
40848;DHT22;26570;50.962;5.340;2023-05-24T12:30:25;21.50;83.30
40848;DHT22;26570;50.962;5.340;2023-05-24T12:33:10;21.50;84.40
40848;DHT22;26570;50.962;5.340;2023-05-24T12:35:55;21.50;83.70
40848;DHT22;26570;50.962;5.340;2023-05-24T12:38:40;21.70;84.50
40848;DHT22;26570;50.962;5.340;2023-05-24T12:41:25;21.60;84.90
40848;DHT22;26570;50.962;5.340;2023-05-24T12:44:11;21.40;86.00
40848;DHT22;26570;50.962;5.340;2023-05-24T12:46:57;21.40;85.10
40848;DHT22;26570;50.962;5.340;2023-05-24T12:49:42;21.40;85.10
40848;DHT22;26570;50.962;5.340;2023-05-24T12:52:27;21.10;86.80
40848;DHT22;26570;50.962;5.340;2023-05-24T12:55:13;21.10;86.30
40848;DHT22;26570;50.962;5.340;2023-05-24T12:57:58;21.20;86.30
40848;DHT22;26570;50.962;5.340;2023-05-24T13:00:45;21.20;87.40
40848;DHT22;26570;50.962;5.340;2023-05-24T13:03:33;20.90;86.20
40848;DHT22;26570;50.962;5.340;2023-05-24T13:06:18;20.70;88.00
40848;DHT22;26570;50.962;5.340;2023-05-24T13:09:03;20.60;88.10
40848;DHT22;26570;50.962;5.340;2023-05-24T13:11:49;20.50;88.70
40848;DHT22;26570;50.962;5.340;2023-05-24T13:14:35;20.40;88.80
40848;DHT22;26570;50.962;5.340;2023-05-24T13:17:20;20.10;89.60
40848;DHT22;26570;50.962;5.340;2023-05-24T13:20:06;20.10;90.40
40848;DHT22;26570;50.962;5.340;2023-05-24T13:22:51;19.80;89.00
40848;DHT22;26570;50.962;5.340;2023-05-24T13:25:36;19.70;90.20
40848;DHT22;26570;50.962;5.340;2023-05-24T13:28:21;19.60;90.50
40848;DHT22;26570;50.962;5.340;2023-05-24T13:31:06;19.60;90.60
40848;DHT22;26570;50.962;5.340;2023-05-24T13:33:51;19.40;90.60
40848;DHT22;26570;50.962;5.340;2023-05-24T13:36:36;19.30;91.20
40848;DHT22;26570;50.962;5.340;2023-05-24T13:39:21;19.30;91.30
40848;DHT22;26570;50.962;5.340;2023-05-24T13:42:07;19.20;91.20
40848;DHT22;26570;50.962;5.340;2023-05-24T13:44:53;19.20;92.10
40848;DHT22;26570;50.962;5.340;2023-05-24T13:47:39;19.10;91.80
40848;DHT22;26570;50.962;5.340;2023-05-24T13:50:24;19.00;91.40
40848;DHT22;26570;50.962;5.340;2023-05-24T13:53:10;18.90;92.00
40848;DHT22;26570;50.962;5.340;2023-05-24T13:55:56;18.90;92.30
40848;DHT22;26570;50.962;5.340;2023-05-24T13:58:41;18.80;93.10
40848;DHT22;26570;50.962;5.340;2023-05-24T14:01:26;18.70;92.90
40848;DHT22;26570;50.962;5.340;2023-05-24T14:04:11;18.50;93.80
40848;DHT22;26570;50.962;5.340;2023-05-24T14:06:56;18.70;93.00
40848;DHT22;26570;50.962;5.340;2023-05-24T14:09:41;18.90;93.40
40848;DHT22;26570;50.962;5.340;2023-05-24T14:12:26;19.20;93.40
40848;DHT22;26570;50.962;5.340;2023-05-24T14:15:11;19.40;93.60
40848;DHT22;26570;50.962;5.340;2023-05-24T14:17:56;19.50;93.70
40848;DHT22;26570;50.962;5.340;2023-05-24T14:20:42;19.60;92.80
40848;DHT22;26570;50.962;5.340;2023-05-24T14:23:27;19.70;92.80
40848;DHT22;26570;50.962;5.340;2023-05-24T14:26:16;19.60;92.80
40848;DHT22;26570;50.962;5.340;2023-05-24T14:29:01;19.90;93.20
40848;DHT22;26570;50.962;5.340;2023-05-24T14:31:45;20.00;92.30
40848;DHT22;26570;50.962;5.340;2023-05-24T14:34:30;20.10;92.30
40848;DHT22;26570;50.962;5.340;2023-05-24T14:37:15;20.20;92.70
40848;DHT22;26570;50.962;5.340;2023-05-24T14:40:03;20.30;91.70
40848;DHT22;26570;50.962;5.340;2023-05-24T14:42:48;20.40;91.70
40848;DHT22;26570;50.962;5.340;2023-05-24T14:45:33;20.80;92.80
40848;DHT22;26570;50.962;5.340;2023-05-24T14:48:18;21.10;91.30
40848;DHT22;26570;50.962;5.340;2023-05-24T14:51:02;21.60;90.60
40848;DHT22;26570;50.962;5.340;2023-05-24T14:53:47;21.60;90.90
40848;DHT22;26570;50.962;5.340;2023-05-24T14:56:32;21.70;90.10
40848;DHT22;26570;50.962;5.340;2023-05-24T14:59:17;21.50;89.70
40848;DHT22;26570;50.962;5.340;2023-05-24T15:02:02;21.00;90.90
40848;DHT22;26570;50.962;5.340;2023-05-24T15:04:47;21.30;90.60
40848;DHT22;26570;50.962;5.340;2023-05-24T15:07:32;21.90;91.10
40848;DHT22;26570;50.962;5.340;2023-05-24T15:10:17;22.20;87.50
40848;DHT22;26570;50.962;5.340;2023-05-24T15:13:02;22.20;88.20
40848;DHT22;26570;50.962;5.340;2023-05-24T15:15:47;22.00;88.00
40848;DHT22;26570;50.962;5.340;2023-05-24T15:18:52;21.60;88.40
40848;DHT22;26570;50.962;5.340;2023-05-24T15:21:56;21.10;90.60
40848;DHT22;26570;50.962;5.340;2023-05-24T15:25:01;20.60;91.10
40848;DHT22;26570;50.962;5.340;2023-05-24T15:28:06;20.30;91.80
40848;DHT22;26570;50.962;5.340;2023-05-24T15:30:51;20.40;91.80
40848;DHT22;26570;50.962;5.340;2023-05-24T15:33:36;20.10;92.00
40848;DHT22;26570;50.962;5.340;2023-05-24T15:36:20;19.90;93.30
40848;DHT22;26570;50.962;5.340;2023-05-24T15:39:05;19.80;92.60
40848;DHT22;26570;50.962;5.340;2023-05-24T15:41:50;19.70;93.00
40848;DHT22;26570;50.962;5.340;2023-05-24T15:44:35;19.70;93.40
40848;DHT22;26570;50.962;5.340;2023-05-24T15:47:20;19.60;93.20
40848;DHT22;26570;50.962;5.340;2023-05-24T15:50:09;19.40;93.10
40848;DHT22;26570;50.962;5.340;2023-05-24T15:52:54;19.30;93.70
40848;DHT22;26570;50.962;5.340;2023-05-24T15:55:39;19.40;94.50
40848;DHT22;26570;50.962;5.340;2023-05-24T15:58:24;19.20;93.80
40848;DHT22;26570;50.962;5.340;2023-05-24T16:01:09;19.00;93.20
40848;DHT22;26570;50.962;5.340;2023-05-24T16:03:53;18.80;94.00
40848;DHT22;26570;50.962;5.340;2023-05-24T16:06:38;18.80;94.40
40848;DHT22;26570;50.962;5.340;2023-05-24T16:09:23;18.50;95.40
40848;DHT22;26570;50.962;5.340;2023-05-24T16:12:09;18.60;95.40
40848;DHT22;26570;50.962;5.340;2023-05-24T16:14:54;18.70;95.40
40848;DHT22;26570;50.962;5.340;2023-05-24T16:17:40;18.70;95.00
40848;DHT22;26570;50.962;5.340;2023-05-24T16:20:25;18.80;94.70
40848;DHT22;26570;50.962;5.340;2023-05-24T16:23:10;18.90;94.60
40848;DHT22;26570;50.962;5.340;2023-05-24T16:25:55;18.70;95.00
40848;DHT22;26570;50.962;5.340;2023-05-24T16:28:40;18.80;95.40
40848;DHT22;26570;50.962;5.340;2023-05-24T16:31:25;18.80;95.80
40848;DHT22;26570;50.962;5.340;2023-05-24T16:34:14;18.90;96.30
40848;DHT22;26570;50.962;5.340;2023-05-24T16:37:10;18.80;95.00
40848;DHT22;26570;50.962;5.340;2023-05-24T16:39:55;18.80;95.60
40848;DHT22;26570;50.962;5.340;2023-05-24T16:42:39;18.80;95.90
40848;DHT22;26570;50.962;5.340;2023-05-24T16:45:24;18.80;96.40
40848;DHT22;26570;50.962;5.340;2023-05-24T16:48:21;18.90;95.50
40848;DHT22;26570;50.962;5.340;2023-05-24T16:51:12;18.70;96.00
40848;DHT22;26570;50.962;5.340;2023-05-24T16:53:58;18.70;96.70
40848;DHT22;26570;50.962;5.340;2023-05-24T16:56:43;18.80;96.50
40848;DHT22;26570;50.962;5.340;2023-05-24T16:59:29;18.80;95.60
40848;DHT22;26570;50.962;5.340;2023-05-24T17:02:15;18.80;96.20
40848;DHT22;26570;50.962;5.340;2023-05-24T17:04:59;18.90;96.60
40848;DHT22;26570;50.962;5.340;2023-05-24T17:07:44;18.80;97.30
40848;DHT22;26570;50.962;5.340;2023-05-24T17:10:30;18.90;97.20
40848;DHT22;26570;50.962;5.340;2023-05-24T17:13:15;18.90;96.80
40848;DHT22;26570;50.962;5.340;2023-05-24T17:16:02;18.90;96.90
40848;DHT22;26570;50.962;5.340;2023-05-24T17:18:47;18.80;96.60
40848;DHT22;26570;50.962;5.340;2023-05-24T17:21:31;18.80;96.50
40848;DHT22;26570;50.962;5.340;2023-05-24T17:24:16;18.90;96.00
40848;DHT22;26570;50.962;5.340;2023-05-24T17:27:01;18.80;96.00
40848;DHT22;26570;50.962;5.340;2023-05-24T17:29:46;18.60;96.70
40848;DHT22;26570;50.962;5.340;2023-05-24T17:32:30;18.70;97.00
40848;DHT22;26570;50.962;5.340;2023-05-24T17:35:15;18.70;97.20
40848;DHT22;26570;50.962;5.340;2023-05-24T17:38:00;18.60;98.00
40848;DHT22;26570;50.962;5.340;2023-05-24T17:40:45;18.60;97.10
40848;DHT22;26570;50.962;5.340;2023-05-24T17:43:31;18.50;96.70
40848;DHT22;26570;50.962;5.340;2023-05-24T17:46:15;18.50;97.70
40848;DHT22;26570;50.962;5.340;2023-05-24T17:49:01;18.50;97.50
40848;DHT22;26570;50.962;5.340;2023-05-24T17:51:45;18.40;98.10
40848;DHT22;26570;50.962;5.340;2023-05-24T17:54:30;18.30;98.70
40848;DHT22;26570;50.962;5.340;2023-05-24T17:57:15;18.30;99.00
40848;DHT22;26570;50.962;5.340;2023-05-24T18:00:00;18.30;97.40
40848;DHT22;26570;50.962;5.340;2023-05-24T18:02:44;18.10;98.30
40848;DHT22;26570;50.962;5.340;2023-05-24T18:05:29;18.10;98.30
40848;DHT22;26570;50.962;5.340;2023-05-24T18:08:14;17.90;98.70
40848;DHT22;26570;50.962;5.340;2023-05-24T18:11:00;17.90;98.40